Manokotak AP, Manokotak, AK, AK

5:47 AM AKDT on September 22, 2017 (GMT -0800)
Manokotak AP, Manokotak, AK

Weather History for PAMB - December, 2013

Change the Weather History Date:

Sunday, December 29, 2013

  Actual Average (PADL) Record (PADL)
Temperature  
Mean Temperature 28 °F -  
Max Temperature 30 °F 22 °F 89 °F (2003)
Min Temperature 26 °F 14 °F -25 °F (1979)
Degree Days  
Heating Degree Days 37    
Moisture  
Dew Point 29 °F    
Average Humidity 98    
Maximum Humidity 100    
Minimum Humidity 92    
Precipitation  
Precipitation 0.00 in - - ()
Sea Level Pressure  
Sea Level Pressure 29.64 in    
Wind  
Wind Speed 10 mph (NE)    
Max Wind Speed 14 mph    
Max Gust Speed -    
Visibility 3 miles    
Events Fog , Snow    
Averages and records for this station are not official NWS values.
T = Trace of Precipitation, MM = Missing Value Source: NWS Daily Summary

Daily Weather History Graph

Daily Weather History Graph

Search for Another Location

Airport or City:

Trip Planner

Search our weather history database for the weather conditions in past years. The results will help you decide how hot, cold, wet, or windy it might be!

Date:

Astronomy

Dec. 29, 2013 Rise Set
Actual Time 10:30 AM AKST 4:46 PM AKST
Civil Twilight 9:36 AM AKST 5:41 PM AKST
Nautical Twilight 8:41 AM AKST 6:35 PM AKST
Astronomical Twilight 7:52 AM AKST 7:25 PM AKST
Moon 7:05 AM AKST (12/29) 2:53 PM AKST (12/29)
Length of Visible Light 8h 04m
Length of Day
6h 16m
Waning Crescent, 10% of the Moon is Illuminated
Dec 29
Waning Crescent
Jan 1
New
Jan 7
First Quarter
Jan 15
Full
Jan 23
Last Quarter

Hourly Weather History & Observations

Time (AKST) Temp. Windchill Dew Point Humidity Pressure Visibility Wind Dir Wind Speed Gust Speed Precip Events Conditions
12:09 AM 26.6 °F 16.2 °F 26.6 °F 100% 29.75 in 2.5 mi NNE 11.5 mph - N/A   Overcast
12:17 AM 28.4 °F 18.5 °F 28.4 °F 100% 29.75 in 2.5 mi NNE 11.5 mph - N/A   Overcast
12:28 AM 28.4 °F 18.0 °F 28.4 °F 100% 29.75 in 1.5 mi NNE 12.7 mph - N/A   Overcast
12:39 AM 28.4 °F 18.0 °F 28.4 °F 100% 29.75 in 1.2 mi NNE 12.7 mph - N/A   Overcast
12:56 AM 28.0 °F 18.6 °F 28.0 °F 100% 29.76 in 1.5 mi NNE 10.4 mph - N/A   Overcast
1:16 AM 28.4 °F - 28.4 °F 100% 29.75 in 2.0 mi Calm Calm - N/A   Overcast
1:30 AM 28.4 °F - 28.4 °F 100% 29.74 in 1.8 mi Calm Calm - N/A   Overcast
1:37 AM 28.4 °F - 28.4 °F 100% 29.74 in 2.5 mi Calm Calm - N/A   Overcast
1:45 AM 28.4 °F - 28.4 °F 100% 29.74 in 4.0 mi Calm Calm - N/A   Overcast
1:56 AM 29.1 °F 18.9 °F 29.1 °F 100% 29.75 in 5.0 mi NE 12.7 mph - N/A   Overcast
2:18 AM 28.4 °F 19.1 °F 28.4 °F 100% 29.74 in 1.8 mi NNE 10.4 mph - N/A   Overcast
3:34 AM 28.4 °F 17.5 °F 28.4 °F 100% 29.73 in 2.0 mi NNE 13.8 mph - 0.00 in   Overcast
3:43 AM 28.4 °F 18.0 °F 28.4 °F 100% 29.72 in 1.8 mi NNE 12.7 mph - 0.00 in   Overcast
3:56 AM 29.1 °F 18.9 °F 29.1 °F 100% 29.74 in 1.5 mi NNE 12.7 mph - 0.00 in   Overcast
4:49 AM 30.2 °F 20.8 °F 30.2 °F 100% 29.71 in 2.0 mi NNE 11.5 mph - N/A   Overcast
4:56 AM 30.0 °F 20.5 °F 30.0 °F 100% 29.72 in 2.5 mi NE 11.5 mph - N/A   Overcast
5:07 AM 30.2 °F 20.8 °F 30.2 °F 100% 29.70 in 3.0 mi NNE 11.5 mph - N/A   Overcast
5:14 AM 30.2 °F 20.8 °F 30.2 °F 100% 29.70 in 2.5 mi NNE 11.5 mph - N/A   Overcast
5:23 AM 30.2 °F 20.8 °F 30.2 °F 100% 29.70 in 3.0 mi NE 11.5 mph - N/A   Overcast
5:46 AM 30.2 °F 21.9 °F 30.2 °F 100% 29.70 in 2.0 mi NE 9.2 mph - N/A   Overcast
5:56 AM 30.2 °F 21.9 °F 30.2 °F 100% 29.69 in 2.5 mi NE 9.2 mph - N/A   Overcast
6:12 AM 30.2 °F 20.8 °F 30.2 °F 100% 29.69 in 1.8 mi NE 11.5 mph - 0.00 in   Overcast
6:22 AM 30.2 °F 21.9 °F 30.2 °F 100% 29.69 in 2.5 mi NE 9.2 mph - 0.00 in   Overcast
6:56 AM 30.0 °F 21.1 °F 30.0 °F 100% 29.70 in 3.0 mi NE 10.4 mph - 0.00 in   Overcast
7:32 AM 30.2 °F 21.9 °F 30.2 °F 100% 29.68 in 1.8 mi NE 9.2 mph - 0.00 in   Overcast
7:56 AM 30.0 °F 21.1 °F 30.0 °F 100% 29.69 in 2.0 mi NE 10.4 mph - 0.00 in   Overcast
8:03 AM 30.2 °F 20.8 °F 30.2 °F 100% 29.67 in 1.8 mi NE 11.5 mph - 0.00 in   Overcast
8:56 AM 30.2 °F 20.8 °F 30.2 °F 100% 29.66 in 1.8 mi NE 11.5 mph - N/A   Overcast
9:19 AM 30.2 °F 21.3 °F 30.2 °F 100% 29.66 in 2.0 mi NNE 10.4 mph - 0.00 in   Overcast
9:29 AM 30.2 °F 21.3 °F 30.2 °F 100% 29.66 in 1.8 mi NNE 10.4 mph - 0.00 in   Overcast
9:56 AM 30.0 °F 21.1 °F 29.1 °F 96% 29.67 in 1.5 mi NNE 10.4 mph - 0.00 in   Overcast
10:49 AM 28.4 °F 19.7 °F 28.4 °F 100% 29.65 in 1.2 mi NNE 9.2 mph - 0.00 in   Overcast
10:56 AM 29.1 °F 20.6 °F 29.1 °F 100% 29.67 in 1.2 mi NNE 9.2 mph - 0.00 in   Overcast
11:02 AM 28.4 °F 19.7 °F 28.4 °F 100% 29.65 in 0.8 mi NNE 9.2 mph - 0.00 in   Overcast
11:12 AM 28.4 °F 19.7 °F 28.4 °F 100% 29.65 in 0.5 mi NNE 9.2 mph - 0.00 in Fog , Snow Light Snow
11:48 AM 30.2 °F 21.9 °F 28.4 °F 93% 29.64 in 0.8 mi NE 9.2 mph - 0.00 in Snow Light Snow
11:56 AM 30.2 °F 21.9 °F 28.4 °F 93% 29.64 in 1.0 mi NE 9.2 mph - N/A Snow Light Snow
12:03 PM 30.2 °F 21.9 °F 28.4 °F 93% 29.64 in 1.5 mi NE 9.2 mph - 0.00 in Snow Light Snow
12:16 PM 30.2 °F 21.9 °F 30.2 °F 100% 29.64 in 1.0 mi NE 9.2 mph - 0.00 in Snow Light Snow
12:56 PM 30.0 °F 22.4 °F 30.0 °F 100% 29.64 in 0.8 mi NE 8.1 mph - 0.00 in Snow Light Snow
1:12 PM 30.2 °F 21.9 °F 30.2 °F 100% 29.62 in 0.5 mi NE 9.2 mph - 0.00 in Fog , Snow Light Snow
1:27 PM 30.2 °F 21.9 °F 30.2 °F 100% 29.62 in 0.8 mi NE 9.2 mph - 0.00 in Snow Light Snow
1:32 PM 30.2 °F 21.3 °F 30.2 °F 100% 29.62 in 1.0 mi NE 10.4 mph - 0.00 in Snow Light Snow
2:15 PM 28.4 °F 19.1 °F 28.4 °F 100% 29.61 in 1.5 mi NE 10.4 mph - 0.00 in   Overcast
2:56 PM 28.4 °F 19.1 °F 28.4 °F 100% 29.59 in 4.0 mi NNE 10.4 mph - N/A   Overcast
3:56 PM 29.1 °F 20.6 °F 28.0 °F 96% 29.59 in 10.0 mi NNE 9.2 mph - N/A   Overcast
4:23 PM 28.4 °F 19.1 °F 28.4 °F 100% 29.57 in 10.0 mi NNE 10.4 mph - N/A   Scattered Clouds
4:31 PM 28.4 °F 18.5 °F 28.4 °F 100% 29.57 in 10.0 mi NNE 11.5 mph - N/A   Mostly Cloudy
4:56 PM 29.1 °F 20.0 °F 28.0 °F 96% 29.58 in 5.0 mi NNE 10.4 mph - N/A   Mostly Cloudy
5:19 PM 28.4 °F 18.5 °F 28.4 °F 100% 29.56 in 9.0 mi NE 11.5 mph - N/A   Scattered Clouds
5:56 PM 29.1 °F 18.9 °F 27.1 °F 92% 29.57 in 10.0 mi NE 12.7 mph - N/A   Mostly Cloudy
6:56 PM 29.1 °F 20.0 °F 28.0 °F 96% 29.55 in 4.0 mi NNE 10.4 mph - 0.00 in   Overcast
7:27 PM 28.4 °F 18.5 °F 28.4 °F 100% 29.53 in 2.5 mi NE 11.5 mph - 0.00 in   Overcast
7:36 PM 28.4 °F 18.5 °F 26.6 °F 93% 29.53 in 3.0 mi NE 11.5 mph - 0.00 in   Overcast
7:43 PM 28.4 °F 18.5 °F 26.6 °F 93% 29.53 in 3.0 mi NE 11.5 mph - 0.00 in   Overcast
7:56 PM 28.0 °F 18.1 °F 28.0 °F 100% 29.54 in 1.2 mi NE 11.5 mph - 0.00 in   Overcast
8:14 PM 28.4 °F 18.0 °F 26.6 °F 93% 29.52 in 2.0 mi NE 12.7 mph - 0.00 in   Overcast
8:30 PM 28.4 °F 18.5 °F 28.4 °F 100% 29.52 in 5.0 mi NE 11.5 mph - 0.00 in   Overcast
8:56 PM 28.4 °F 18.5 °F 26.6 °F 93% 29.51 in 7.0 mi NE 11.5 mph - N/A   Overcast
9:11 PM 28.4 °F 18.5 °F 26.6 °F 93% 29.51 in 10.0 mi NE 11.5 mph - N/A   Overcast
9:56 PM 27.1 °F 15.9 °F 25.2 °F 92% 29.51 in 10.0 mi NE 13.8 mph - N/A   Mostly Cloudy
10:42 PM 26.6 °F 16.2 °F 24.8 °F 93% 29.49 in 10.0 mi NNE 11.5 mph - N/A   Overcast
10:56 PM 27.1 °F 16.9 °F 26.1 °F 96% 29.50 in 10.0 mi NE 11.5 mph - N/A   Overcast
11:56 PM 28.0 °F 18.1 °F 26.1 °F 92% 29.49 in 8.0 mi NE 11.5 mph - 0.00 in   Overcast